sensor_id;sensor_type;location;lat;lon;timestamp;P1;durP1;ratioP1;P2;durP2;ratioP2
86301;SDS011;76960;49.038;12.160;2024-03-02T17:13:35;7.95;;;4.47;;
86301;SDS011;76960;49.038;12.160;2024-03-02T17:16:01;35.00;;;21.55;;
86301;SDS011;76960;49.038;12.160;2024-03-02T17:18:26;43.60;;;27.67;;
86301;SDS011;76960;49.038;12.160;2024-03-02T17:20:51;18.63;;;10.57;;
86301;SDS011;76960;49.038;12.160;2024-03-02T17:23:16;21.53;;;12.37;;
86301;SDS011;76960;49.038;12.160;2024-03-02T17:25:41;20.87;;;12.70;;
86301;SDS011;76960;49.038;12.160;2024-03-02T17:30:44;20.83;;;12.15;;
86301;SDS011;76960;49.038;12.160;2024-03-02T17:33:09;22.30;;;12.75;;
86301;SDS011;76960;49.038;12.160;2024-03-02T17:35:34;24.17;;;12.47;;
86301;SDS011;76960;49.038;12.160;2024-03-02T17:38:00;19.15;;;11.73;;
86301;SDS011;76960;49.038;12.160;2024-03-02T17:40:25;18.45;;;11.32;;
86301;SDS011;76960;49.038;12.160;2024-03-02T17:42:50;18.80;;;11.27;;
86301;SDS011;76960;49.038;12.160;2024-03-02T18:01:28;23.63;;;11.50;;
86301;SDS011;76960;49.038;12.160;2024-03-02T18:03:53;36.47;;;11.53;;
86301;SDS011;76960;49.038;12.160;2024-03-02T18:06:19;21.63;;;11.03;;
86301;SDS011;76960;49.038;12.160;2024-03-02T18:08:44;22.23;;;10.57;;
86301;SDS011;76960;49.038;12.160;2024-03-02T18:11:09;17.77;;;10.20;;
86301;SDS011;76960;49.038;12.160;2024-03-02T18:13:34;18.73;;;10.83;;
86301;SDS011;76960;49.038;12.160;2024-03-02T18:16:00;23.93;;;11.97;;
86301;SDS011;76960;49.038;12.160;2024-03-02T18:18:26;26.58;;;13.57;;
86301;SDS011;76960;49.038;12.160;2024-03-02T18:20:51;27.23;;;14.33;;
86301;SDS011;76960;49.038;12.160;2024-03-02T18:24:52;65.85;;;29.67;;
86301;SDS011;76960;49.038;12.160;2024-03-02T18:27:17;74.57;;;30.60;;
86301;SDS011;76960;49.038;12.160;2024-03-02T18:29:43;64.25;;;28.23;;
86301;SDS011;76960;49.038;12.160;2024-03-02T18:32:08;69.35;;;27.90;;
86301;SDS011;76960;49.038;12.160;2024-03-02T18:34:33;60.47;;;26.47;;
86301;SDS011;76960;49.038;12.160;2024-03-02T18:36:58;58.67;;;24.90;;
86301;SDS011;76960;49.038;12.160;2024-03-02T18:39:24;64.45;;;24.73;;
86301;SDS011;76960;49.038;12.160;2024-03-02T18:41:49;57.67;;;25.37;;
86301;SDS011;76960;49.038;12.160;2024-03-02T18:44:14;62.87;;;26.03;;
86301;SDS011;76960;49.038;12.160;2024-03-02T18:46:39;56.90;;;24.73;;
86301;SDS011;76960;49.038;12.160;2024-03-02T18:49:05;57.53;;;23.90;;
86301;SDS011;76960;49.038;12.160;2024-03-02T18:51:30;57.83;;;25.17;;
86301;SDS011;76960;49.038;12.160;2024-03-02T18:53:55;61.87;;;25.37;;
86301;SDS011;76960;49.038;12.160;2024-03-02T18:56:20;47.60;;;22.80;;
86301;SDS011;76960;49.038;12.160;2024-03-02T18:58:45;58.08;;;24.63;;
86301;SDS011;76960;49.038;12.160;2024-03-02T19:01:11;52.40;;;22.60;;
86301;SDS011;76960;49.038;12.160;2024-03-02T19:03:36;52.70;;;22.97;;
86301;SDS011;76960;49.038;12.160;2024-03-02T19:06:01;57.07;;;23.33;;
86301;SDS011;76960;49.038;12.160;2024-03-02T19:08:27;49.67;;;21.43;;
86301;SDS011;76960;49.038;12.160;2024-03-02T19:10:52;49.63;;;22.23;;
86301;SDS011;76960;49.038;12.160;2024-03-02T19:13:18;44.67;;;21.58;;
86301;SDS011;76960;49.038;12.160;2024-03-02T19:15:43;45.40;;;22.63;;
86301;SDS011;76960;49.038;12.160;2024-03-02T19:18:08;53.63;;;23.17;;
86301;SDS011;76960;49.038;12.160;2024-03-02T19:20:33;48.50;;;21.38;;
86301;SDS011;76960;49.038;12.160;2024-03-02T19:22:59;51.60;;;21.87;;
86301;SDS011;76960;49.038;12.160;2024-03-02T19:25:24;56.40;;;21.48;;
86301;SDS011;76960;49.038;12.160;2024-03-02T19:27:49;49.53;;;21.33;;
86301;SDS011;76960;49.038;12.160;2024-03-02T19:30:14;45.37;;;22.20;;
86301;SDS011;76960;49.038;12.160;2024-03-02T19:32:40;49.33;;;22.17;;
86301;SDS011;76960;49.038;12.160;2024-03-02T19:35:05;47.85;;;20.50;;
86301;SDS011;76960;49.038;12.160;2024-03-02T19:37:31;46.33;;;20.73;;
86301;SDS011;76960;49.038;12.160;2024-03-02T19:39:56;44.50;;;20.73;;
86301;SDS011;76960;49.038;12.160;2024-03-02T19:42:22;44.92;;;20.88;;
86301;SDS011;76960;49.038;12.160;2024-03-02T19:44:47;47.95;;;21.40;;
86301;SDS011;76960;49.038;12.160;2024-03-02T19:47:12;48.70;;;21.43;;
86301;SDS011;76960;49.038;12.160;2024-03-02T19:49:44;47.25;;;20.55;;
86301;SDS011;76960;49.038;12.160;2024-03-02T19:52:09;41.78;;;19.00;;
86301;SDS011;76960;49.038;12.160;2024-03-02T19:54:34;44.00;;;20.40;;
86301;SDS011;76960;49.038;12.160;2024-03-02T19:56:59;42.23;;;19.97;;
86301;SDS011;76960;49.038;12.160;2024-03-02T19:59:26;47.38;;;20.63;;
86301;SDS011;76960;49.038;12.160;2024-03-02T20:01:52;43.13;;;18.70;;
86301;SDS011;76960;49.038;12.160;2024-03-02T20:04:17;40.67;;;19.20;;
86301;SDS011;76960;49.038;12.160;2024-03-02T20:06:45;42.25;;;19.13;;
86301;SDS011;76960;49.038;12.160;2024-03-02T20:09:10;40.73;;;20.60;;
86301;SDS011;76960;49.038;12.160;2024-03-02T20:11:36;45.00;;;19.25;;
86301;SDS011;76960;49.038;12.160;2024-03-02T20:14:01;41.80;;;18.93;;
86301;SDS011;76960;49.038;12.160;2024-03-02T20:16:26;41.50;;;19.13;;
86301;SDS011;76960;49.038;12.160;2024-03-02T20:18:52;45.43;;;18.97;;
86301;SDS011;76960;49.038;12.160;2024-03-02T20:21:17;39.43;;;18.47;;
86301;SDS011;76960;49.038;12.160;2024-03-02T20:23:42;41.53;;;17.70;;
86301;SDS011;76960;49.038;12.160;2024-03-02T20:26:07;36.67;;;18.53;;
86301;SDS011;76960;49.038;12.160;2024-03-02T20:28:33;38.10;;;17.75;;
86301;SDS011;76960;49.038;12.160;2024-03-02T20:30:58;41.33;;;18.73;;
86301;SDS011;76960;49.038;12.160;2024-03-02T20:33:23;39.70;;;17.73;;
86301;SDS011;76960;49.038;12.160;2024-03-02T20:35:48;42.63;;;18.70;;
86301;SDS011;76960;49.038;12.160;2024-03-02T20:38:13;41.00;;;18.13;;
86301;SDS011;76960;49.038;12.160;2024-03-02T20:40:39;39.87;;;17.57;;
86301;SDS011;76960;49.038;12.160;2024-03-02T20:45:31;39.47;;;17.57;;
86301;SDS011;76960;49.038;12.160;2024-03-02T20:47:56;39.40;;;17.83;;
86301;SDS011;76960;49.038;12.160;2024-03-02T20:50:21;36.60;;;16.63;;
86301;SDS011;76960;49.038;12.160;2024-03-02T20:52:46;37.23;;;17.53;;
86301;SDS011;76960;49.038;12.160;2024-03-02T20:55:12;39.30;;;17.65;;
86301;SDS011;76960;49.038;12.160;2024-03-02T20:57:38;35.90;;;16.83;;
86301;SDS011;76960;49.038;12.160;2024-03-02T21:00:04;36.83;;;17.40;;
86301;SDS011;76960;49.038;12.160;2024-03-02T21:02:32;33.95;;;16.90;;
86301;SDS011;76960;49.038;12.160;2024-03-02T21:04:59;36.97;;;17.23;;
86301;SDS011;76960;49.038;12.160;2024-03-02T21:07:24;33.60;;;15.87;;
86301;SDS011;76960;49.038;12.160;2024-03-02T21:09:49;38.20;;;16.60;;
86301;SDS011;76960;49.038;12.160;2024-03-02T21:12:15;35.88;;;16.10;;
86301;SDS011;76960;49.038;12.160;2024-03-02T21:14:40;32.73;;;15.93;;
86301;SDS011;76960;49.038;12.160;2024-03-02T21:17:05;34.10;;;16.30;;
86301;SDS011;76960;49.038;12.160;2024-03-02T21:19:30;33.07;;;16.27;;
86301;SDS011;76960;49.038;12.160;2024-03-02T21:21:56;34.58;;;15.85;;
86301;SDS011;76960;49.038;12.160;2024-03-02T21:26:48;31.92;;;15.13;;
86301;SDS011;76960;49.038;12.160;2024-03-02T21:29:15;33.75;;;14.52;;
86301;SDS011;76960;49.038;12.160;2024-03-02T21:34:07;32.97;;;14.38;;
86301;SDS011;76960;49.038;12.160;2024-03-02T21:36:32;33.23;;;15.83;;
86301;SDS011;76960;49.038;12.160;2024-03-02T21:38:57;34.57;;;15.67;;
86301;SDS011;76960;49.038;12.160;2024-03-02T21:41:22;33.57;;;15.10;;
86301;SDS011;76960;49.038;12.160;2024-03-02T21:43:47;32.73;;;16.03;;
86301;SDS011;76960;49.038;12.160;2024-03-02T21:46:13;33.23;;;15.03;;
86301;SDS011;76960;49.038;12.160;2024-03-02T21:48:38;30.67;;;15.70;;
86301;SDS011;76960;49.038;12.160;2024-03-02T21:51:03;33.30;;;14.63;;
86301;SDS011;76960;49.038;12.160;2024-03-02T21:53:28;32.13;;;15.17;;
86301;SDS011;76960;49.038;12.160;2024-03-02T21:55:53;30.87;;;14.97;;
86301;SDS011;76960;49.038;12.160;2024-03-02T21:58:19;31.45;;;14.80;;
86301;SDS011;76960;49.038;12.160;2024-03-02T22:00:44;32.35;;;14.55;;
86301;SDS011;76960;49.038;12.160;2024-03-02T22:03:10;29.55;;;14.75;;
86301;SDS011;76960;49.038;12.160;2024-03-02T22:05:35;29.20;;;14.10;;
86301;SDS011;76960;49.038;12.160;2024-03-02T22:08:00;27.80;;;13.60;;
86301;SDS011;76960;49.038;12.160;2024-03-02T22:10:26;29.03;;;13.67;;
86301;SDS011;76960;49.038;12.160;2024-03-02T22:12:51;30.93;;;14.60;;
86301;SDS011;76960;49.038;12.160;2024-03-02T22:15:16;31.43;;;14.70;;
86301;SDS011;76960;49.038;12.160;2024-03-02T22:17:41;27.47;;;13.73;;
86301;SDS011;76960;49.038;12.160;2024-03-02T22:20:06;24.57;;;12.67;;
86301;SDS011;76960;49.038;12.160;2024-03-02T22:22:32;28.98;;;13.88;;
86301;SDS011;76960;49.038;12.160;2024-03-02T22:24:57;28.07;;;12.77;;
86301;SDS011;76960;49.038;12.160;2024-03-02T22:27:23;26.98;;;13.00;;
86301;SDS011;76960;49.038;12.160;2024-03-02T22:29:48;29.83;;;14.10;;
86301;SDS011;76960;49.038;12.160;2024-03-02T22:32:13;29.27;;;13.70;;
86301;SDS011;76960;49.038;12.160;2024-03-02T22:34:38;26.40;;;13.10;;
86301;SDS011;76960;49.038;12.160;2024-03-02T22:37:03;29.73;;;13.13;;
86301;SDS011;76960;49.038;12.160;2024-03-02T22:39:28;28.17;;;13.80;;
86301;SDS011;76960;49.038;12.160;2024-03-02T22:41:54;31.20;;;13.73;;
86301;SDS011;76960;49.038;12.160;2024-03-02T22:44:20;27.02;;;12.70;;
86301;SDS011;76960;49.038;12.160;2024-03-02T22:46:45;29.33;;;13.03;;
86301;SDS011;76960;49.038;12.160;2024-03-02T22:49:10;25.37;;;12.77;;
86301;SDS011;76960;49.038;12.160;2024-03-02T22:51:35;26.70;;;11.63;;
86301;SDS011;76960;49.038;12.160;2024-03-02T22:54:00;24.07;;;12.13;;
86301;SDS011;76960;49.038;12.160;2024-03-02T22:56:25;24.10;;;12.00;;
86301;SDS011;76960;49.038;12.160;2024-03-02T22:58:51;28.80;;;12.47;;
86301;SDS011;76960;49.038;12.160;2024-03-02T23:01:16;27.00;;;13.50;;
86301;SDS011;76960;49.038;12.160;2024-03-02T23:03:45;24.20;;;11.48;;
86301;SDS011;76960;49.038;12.160;2024-03-02T23:06:10;26.47;;;12.83;;
86301;SDS011;76960;49.038;12.160;2024-03-02T23:08:35;23.13;;;11.50;;
86301;SDS011;76960;49.038;12.160;2024-03-02T23:11:01;24.70;;;11.98;;
86301;SDS011;76960;49.038;12.160;2024-03-02T23:13:27;22.45;;;11.75;;
86301;SDS011;76960;49.038;12.160;2024-03-02T23:15:53;26.27;;;12.35;;
86301;SDS011;76960;49.038;12.160;2024-03-02T23:18:18;23.40;;;11.43;;
86301;SDS011;76960;49.038;12.160;2024-03-02T23:20:43;27.03;;;12.70;;
86301;SDS011;76960;49.038;12.160;2024-03-02T23:23:08;23.63;;;11.57;;
86301;SDS011;76960;49.038;12.160;2024-03-02T23:25:34;23.20;;;12.33;;
86301;SDS011;76960;49.038;12.160;2024-03-02T23:27:59;21.83;;;11.55;;
86301;SDS011;76960;49.038;12.160;2024-03-02T23:30:24;22.42;;;11.27;;
86301;SDS011;76960;49.038;12.160;2024-03-02T23:32:50;23.05;;;11.25;;
86301;SDS011;76960;49.038;12.160;2024-03-02T23:35:15;21.15;;;11.57;;
86301;SDS011;76960;49.038;12.160;2024-03-02T23:37:40;24.67;;;11.07;;
86301;SDS011;76960;49.038;12.160;2024-03-02T23:40:06;22.97;;;11.47;;
86301;SDS011;76960;49.038;12.160;2024-03-02T23:42:51;22.23;;;11.57;;
86301;SDS011;76960;49.038;12.160;2024-03-02T23:45:17;22.42;;;11.27;;
86301;SDS011;76960;49.038;12.160;2024-03-02T23:47:42;21.63;;;10.67;;
86301;SDS011;76960;49.038;12.160;2024-03-02T23:50:07;19.50;;;10.30;;
86301;SDS011;76960;49.038;12.160;2024-03-02T23:52:33;24.20;;;11.32;;
86301;SDS011;76960;49.038;12.160;2024-03-02T23:54:58;19.20;;;11.27;;
86301;SDS011;76960;49.038;12.160;2024-03-02T23:57:23;23.67;;;11.40;;
86301;SDS011;76960;49.038;12.160;2024-03-02T23:59:48;20.60;;;10.90;;
